Time;durP1;ratioP1;P1;durP2;ratioP2;P2;SDS_P1;SDS_P2;PMS_P1;PMS_P2;Temp;Humidity;BMP_temperature;BMP_pressure;BME280_temperature;BME280_humidity;BME280_pressure;Samples;Min_cycle;Max_cycle;Signal;HPM_P1;HPM_P2
2022/12/03 00:02:21;;;;;;;9.15;6.60;;;20.60;41.10;;;;;;5030003;28;20052;-61
2022/12/03 00:04:49;;;;;;;6.90;6.03;;;20.60;41.10;;;;;;5029978;28;20041;-61
2022/12/03 00:07:16;;;;;;;8.02;6.13;;;20.60;41.00;;;;;;5030218;28;20049;-63
2022/12/03 00:09:43;;;;;;;8.32;6.00;;;20.60;41.00;;;;;;5029943;28;20092;-61
2022/12/03 00:12:11;;;;;;;8.07;5.97;;;20.60;41.00;;;;;;5025597;28;20068;-61
2022/12/03 00:14:38;;;;;;;6.72;5.60;;;20.60;40.90;;;;;;5029657;28;20091;-61
2022/12/03 00:17:10;;;;;;;8.05;5.97;;;20.70;41.00;;;;;;5029828;28;20049;-61
2022/12/03 00:19:37;;;;;;;6.95;5.50;;;20.60;40.90;;;;;;5029610;28;20055;-61
2022/12/03 00:22:04;;;;;;;7.97;5.95;;;20.70;41.00;;;;;;5029615;28;20053;-61
2022/12/03 00:24:31;;;;;;;7.32;5.97;;;20.70;40.90;;;;;;5029297;28;20045;-61
2022/12/03 00:26:58;;;;;;;8.02;5.97;;;20.70;41.00;;;;;;5027978;28;20056;-61
2022/12/03 00:29:26;;;;;;;7.15;5.55;;;20.60;40.90;;;;;;5029922;28;20046;-61
2022/12/03 00:31:53;;;;;;;6.90;5.45;;;20.70;40.90;;;;;;5029701;28;20053;-61
2022/12/03 00:34:21;;;;;;;7.38;5.60;;;20.60;40.90;;;;;;5029404;28;20057;-61
2022/12/03 00:36:48;;;;;;;7.00;5.97;;;20.60;40.90;;;;;;5029037;28;20058;-61
2022/12/03 00:39:15;;;;;;;7.05;5.72;;;20.60;40.90;;;;;;5029557;28;20053;-61
2022/12/03 00:41:42;;;;;;;7.28;5.63;;;20.60;40.80;;;;;;5029601;28;20437;-61
2022/12/03 00:44:10;;;;;;;6.35;5.18;;;20.60;40.90;;;;;;5029484;28;20057;-61
2022/12/03 00:46:38;;;;;;;6.47;5.53;;;20.60;40.90;;;;;;5029445;28;20502;-61
2022/12/03 00:49:05;;;;;;;7.00;5.47;;;20.60;40.80;;;;;;5024676;28;20108;-61
2022/12/03 00:51:32;;;;;;;8.82;6.03;;;20.60;40.90;;;;;;5028120;28;20104;-61
2022/12/03 00:53:59;;;;;;;7.60;5.63;;;20.60;40.80;;;;;;5029384;28;20379;-61
2022/12/03 00:56:26;;;;;;;6.88;5.55;;;20.60;40.90;;;;;;5028993;28;20454;-61
2022/12/03 00:58:54;;;;;;;6.15;5.10;;;20.60;40.80;;;;;;5029114;28;20573;-61
2022/12/03 01:01:21;;;;;;;7.80;5.55;;;20.60;40.90;;;;;;5028961;28;20052;-61
2022/12/03 01:03:48;;;;;;;7.43;5.47;;;20.60;40.90;;;;;;5029397;28;20461;-61
2022/12/03 01:06:15;;;;;;;7.07;5.22;;;20.60;40.80;;;;;;5029054;28;20111;-61
2022/12/03 01:08:42;;;;;;;7.70;5.88;;;20.60;40.80;;;;;;5029253;28;20132;-61
2022/12/03 01:13:57;;;;;;;6.53;5.00;;;20.60;40.90;;;;;;5028240;28;20049;-61
2022/12/03 01:16:24;;;;;;;6.75;5.13;;;20.60;40.80;;;;;;5029359;28;20045;-61
2022/12/03 01:18:52;;;;;;;6.10;5.18;;;20.60;40.80;;;;;;5029235;28;20053;-61
2022/12/03 01:21:19;;;;;;;6.93;5.50;;;20.60;40.80;;;;;;5023186;28;20042;-61
2022/12/03 01:23:46;;;;;;;7.03;5.40;;;20.60;40.80;;;;;;5028875;28;20061;-61
2022/12/03 01:26:13;;;;;;;6.50;4.32;;;20.60;40.80;;;;;;5028076;28;20045;-61
2022/12/03 01:28:40;;;;;;;6.60;5.13;;;20.60;40.80;;;;;;5028972;28;20052;-61
2022/12/03 01:33:55;;;;;;;6.35;5.50;;;20.60;40.80;;;;;;5028715;28;20057;-61
2022/12/03 01:36:22;;;;;;;6.68;4.97;;;20.60;40.80;;;;;;5028603;28;20056;-61
2022/12/03 01:38:49;;;;;;;6.47;5.40;;;20.60;40.90;;;;;;5028832;28;20057;-61
2022/12/03 01:41:18;;;;;;;6.50;5.30;;;20.60;40.90;;;;;;5029008;28;20053;-61
2022/12/03 01:43:47;;;;;;;6.85;4.97;;;20.50;40.80;;;;;;5028633;28;20045;-61
2022/12/03 01:46:19;;;;;;;7.38;5.25;;;20.50;40.80;;;;;;5029154;28;20485;-61
2022/12/03 01:48:49;;;;;;;7.00;5.65;;;20.60;40.90;;;;;;5028886;28;20452;-61
2022/12/03 01:51:16;;;;;;;6.45;4.82;;;20.50;40.90;;;;;;5028736;28;20052;-61
2022/12/03 01:53:44;;;;;;;6.18;5.32;;;20.50;40.90;;;;;;5024642;28;20054;-61
2022/12/03 01:56:14;;;;;;;7.75;5.70;;;20.50;40.90;;;;;;5029002;28;20501;-61
2022/12/03 01:58:42;;;;;;;6.63;4.78;;;20.50;40.90;;;;;;5029455;28;20052;-61
2022/12/03 02:01:13;;;;;;;9.43;5.05;;;20.50;40.90;;;;;;5032206;28;20132;-61
2022/12/03 02:03:42;;;;;;;5.65;4.90;;;20.50;40.90;;;;;;5031445;28;20077;-61
2022/12/03 02:06:15;;;;;;;6.45;5.28;;;20.50;40.90;;;;;;5032136;28;20531;-61
2022/12/03 02:08:43;;;;;;;5.05;4.55;;;20.50;40.90;;;;;;5032340;28;20138;-61
2022/12/03 02:11:27;;;;;;;6.47;5.10;;;20.50;40.90;;;;;;5032200;28;20045;-61
2022/12/03 02:13:59;;;;;;;6.70;4.88;;;20.50;40.90;;;;;;5031765;28;20045;-61
2022/12/03 02:16:27;;;;;;;5.95;4.50;;;20.50;40.90;;;;;;5031113;28;20053;-61
2022/12/03 02:18:54;;;;;;;5.00;4.50;;;20.50;40.90;;;;;;5031584;28;20103;-61
2022/12/03 02:21:49;;;;;;;6.82;5.05;;;20.50;40.80;;;;;;5032413;28;20052;-61
2022/12/03 02:24:35;;;;;;;6.78;5.10;;;20.50;40.80;;;;;;5031589;28;20405;-61
2022/12/03 02:27:02;;;;;;;4.88;4.03;;;20.50;40.70;;;;;;5031653;28;20067;-61
2022/12/03 02:29:29;;;;;;;6.10;5.05;;;20.60;40.70;;;;;;5027295;28;20053;-61
2022/12/03 02:31:56;;;;;;;5.70;4.45;;;20.50;40.70;;;;;;5031949;28;20182;-61
2022/12/03 02:34:38;;;;;;;6.32;5.25;;;20.50;40.70;;;;;;5030401;28;20100;-61
2022/12/03 02:37:08;;;;;;;5.80;4.60;;;20.50;40.70;;;;;;5031527;28;20468;-61
2022/12/03 02:39:38;;;;;;;5.90;4.93;;;20.50;40.60;;;;;;5031896;28;20065;-61
2022/12/03 02:42:33;;;;;;;5.25;4.72;;;20.50;40.60;;;;;;5031556;28;20054;-61
2022/12/03 02:44:53;;;;;;;5.13;4.63;;;20.50;40.60;;;;;;5031368;28;20059;-61
2022/12/03 02:47:25;;;;;;;6.57;4.97;;;20.50;40.60;;;;;;5031588;28;20453;-61
2022/12/03 02:49:52;;;;;;;4.80;4.28;;;20.50;40.60;;;;;;5031247;28;20053;-61
2022/12/03 02:52:19;;;;;;;5.60;4.78;;;20.50;40.60;;;;;;5031736;28;20411;-61
2022/12/03 02:54:47;;;;;;;5.10;4.38;;;20.50;40.60;;;;;;5030243;28;20049;-61
2022/12/03 02:57:15;;;;;;;4.70;4.20;;;20.50;40.60;;;;;;5031294;28;20041;-61
2022/12/03 02:59:44;;;;;;;4.88;4.40;;;20.50;40.60;;;;;;5031273;28;20049;-60
2022/12/03 03:02:13;;;;;;;5.15;4.22;;;20.50;40.60;;;;;;5026765;28;20068;-61
2022/12/03 03:04:41;;;;;;;4.47;3.75;;;20.50;40.60;;;;;;5031347;28;20053;-61
2022/12/03 03:07:09;;;;;;;5.93;4.50;;;20.50;40.60;;;;;;5031141;28;20049;-61
2022/12/03 03:09:36;;;;;;;5.18;4.30;;;20.50;40.60;;;;;;5031118;28;20056;-61
2022/12/03 03:12:03;;;;;;;4.65;4.20;;;20.50;40.60;;;;;;5031133;28;20112;-61
2022/12/03 03:14:31;;;;;;;4.72;4.00;;;20.50;40.60;;;;;;5030822;28;20518;-61
2022/12/03 03:16:59;;;;;;;6.03;4.60;;;20.50;40.50;;;;;;5031047;28;20474;-61
2022/12/03 03:19:28;;;;;;;5.53;4.20;;;20.50;40.60;;;;;;5031062;28;20049;-61
2022/12/03 03:21:56;;;;;;;5.47;4.97;;;20.50;40.60;;;;;;5031079;28;20050;-61
2022/12/03 03:24:24;;;;;;;4.70;4.20;;;20.50;40.60;;;;;;5030668;28;20060;-61
2022/12/03 03:26:51;;;;;;;6.13;4.85;;;20.50;40.50;;;;;;5029350;28;20489;-61
2022/12/03 03:29:19;;;;;;;4.93;4.25;;;20.50;40.60;;;;;;5031073;28;20049;-61
2022/12/03 03:31:46;;;;;;;5.97;4.75;;;20.50;40.60;;;;;;5030915;28;20068;-61
2022/12/03 03:34:14;;;;;;;5.65;4.53;;;20.50;40.60;;;;;;5030816;28;20053;-61
2022/12/03 03:36:42;;;;;;;5.07;4.13;;;20.50;40.60;;;;;;5030642;28;20057;-61
2022/12/03 03:39:09;;;;;;;4.68;4.20;;;20.50;40.50;;;;;;5029069;28;20053;-61
2022/12/03 03:41:37;;;;;;;4.47;4.03;;;20.50;40.60;;;;;;5025925;28;20053;-61
2022/12/03 03:44:07;;;;;;;4.20;3.80;;;20.50;40.50;;;;;;5030706;28;20064;-61
2022/12/03 03:46:36;;;;;;;5.00;3.90;;;20.50;40.60;;;;;;5030458;28;20053;-61
2022/12/03 03:49:05;;;;;;;4.78;4.15;;;20.50;40.60;;;;;;5030218;28;20496;-61
2022/12/03 03:51:34;;;;;;;5.05;4.55;;;20.50;40.60;;;;;;5030208;28;20041;-61
2022/12/03 03:54:03;;;;;;;4.55;4.05;;;20.50;40.50;;;;;;5030209;28;20428;-61
2022/12/03 03:56:31;;;;;;;4.85;4.35;;;20.50;40.50;;;;;;5030539;28;20055;-61
2022/12/03 03:58:59;;;;;;;4.82;3.95;;;20.50;40.50;;;;;;5030879;28;20425;-61
2022/12/03 04:01:26;;;;;;;5.00;4.20;;;20.50;40.60;;;;;;5030183;28;20053;-61
2022/12/03 04:03:54;;;;;;;5.00;4.00;;;20.50;40.60;;;;;;5029804;28;20049;-61
2022/12/03 04:06:22;;;;;;;4.47;3.78;;;20.50;40.70;;;;;;5029799;28;20084;-61
2022/12/03 04:08:49;;;;;;;4.53;4.13;;;20.40;40.60;;;;;;5029617;28;20049;-61
2022/12/03 04:14:03;;;;;;;5.05;4.45;;;20.40;40.70;;;;;;5025207;28;20045;-61
2022/12/03 04:16:30;;;;;;;5.45;4.03;;;20.40;40.70;;;;;;5029667;28;20049;-61
2022/12/03 04:18:57;;;;;;;5.43;4.30;;;20.40;40.70;;;;;;5029730;28;20045;-62
2022/12/03 04:24:11;;;;;;;4.43;3.88;;;20.40;40.70;;;;;;5029659;28;20053;-61
2022/12/03 04:29:26;;;;;;;4.55;4.07;;;20.40;40.70;;;;;;5029781;28;20057;-61
2022/12/03 04:37:28;;;;;;;3.95;3.47;;;20.40;40.60;;;;;;5028298;28;20073;-61
2022/12/03 04:39:55;;;;;;;4.78;4.10;;;20.50;40.60;;;;;;5029534;28;20136;-61
2022/12/03 04:42:22;;;;;;;5.07;4.57;;;20.40;40.50;;;;;;5029144;28;20048;-61
2022/12/03 04:44:49;;;;;;;6.15;3.60;;;20.50;40.50;;;;;;5029605;28;20049;-61
2022/12/03 04:47:19;;;;;;;5.70;4.15;;;20.50;40.50;;;;;;5029226;28;20048;-61
2022/12/03 04:49:49;;;;;;;4.72;4.22;;;20.50;40.50;;;;;;5024857;28;20059;-61
2022/12/03 04:52:18;;;;;;;4.28;3.63;;;20.50;40.50;;;;;;5029647;28;20057;-61
2022/12/03 04:54:45;;;;;;;4.25;3.85;;;20.50;40.50;;;;;;5029493;28;20401;-60
2022/12/03 04:57:12;;;;;;;4.72;4.28;;;20.40;40.50;;;;;;5029166;28;20049;-61
2022/12/03 04:59:39;;;;;;;5.10;4.25;;;20.50;40.50;;;;;;5029508;28;20390;-61
2022/12/03 05:02:07;;;;;;;4.88;4.35;;;20.50;40.50;;;;;;5029564;28;20046;-60
2022/12/03 05:04:34;;;;;;;4.88;4.00;;;20.50;40.50;;;;;;5028816;28;20472;-61
2022/12/03 05:07:01;;;;;;;4.72;4.22;;;20.40;40.50;;;;;;5028853;28;20072;-61
2022/12/03 05:09:28;;;;;;;4.35;3.92;;;20.50;40.50;;;;;;5029425;28;20049;-61
2022/12/03 05:11:56;;;;;;;4.57;3.67;;;20.50;40.50;;;;;;5028003;28;20049;-61
2022/12/03 05:14:23;;;;;;;4.18;3.75;;;20.40;40.50;;;;;;5028647;28;20041;-61
2022/12/03 05:16:50;;;;;;;4.07;3.63;;;20.40;40.50;;;;;;5028927;28;20490;-61
2022/12/03 05:19:17;;;;;;;4.90;4.00;;;20.40;40.50;;;;;;5029243;28;20046;-61
2022/12/03 05:21:44;;;;;;;4.57;3.70;;;20.40;40.50;;;;;;5028272;28;20632;-61
2022/12/03 05:24:12;;;;;;;4.97;4.13;;;20.40;40.50;;;;;;5028783;28;20049;-61
2022/12/03 05:26:39;;;;;;;4.82;4.25;;;20.40;40.50;;;;;;5025742;28;20053;-61
2022/12/03 05:29:06;;;;;;;4.80;4.15;;;20.40;40.50;;;;;;5028478;28;20060;-61
2022/12/03 05:31:33;;;;;;;4.47;4.05;;;20.40;40.50;;;;;;5029140;28;20053;-61
2022/12/03 05:34:00;;;;;;;5.45;4.60;;;20.40;40.50;;;;;;5031824;28;20682;-61
2022/12/03 05:36:28;;;;;;;5.00;4.22;;;20.40;40.50;;;;;;5032208;28;20503;-61
2022/12/03 05:38:55;;;;;;;6.70;5.47;;;20.40;40.40;;;;;;5032599;28;20058;-61
2022/12/03 05:44:09;;;;;;;7.32;5.43;;;20.40;40.10;;;;;;5032727;28;20056;-61
2022/12/03 05:46:40;;;;;;;7.32;5.97;;;20.40;40.10;;;;;;5032053;28;20489;-61
2022/12/03 05:49:07;;;;;;;7.45;5.85;;;20.50;40.10;;;;;;5032407;28;20052;-61
2022/12/03 05:51:34;;;;;;;7.18;5.57;;;20.40;39.90;;;;;;5032618;28;20053;-61
2022/12/03 05:54:01;;;;;;;9.02;6.43;;;20.50;40.00;;;;;;5032568;28;20394;-61
2022/12/03 05:56:28;;;;;;;6.90;5.45;;;20.40;40.00;;;;;;5030652;28;20053;-61
2022/12/03 05:58:56;;;;;;;9.05;5.93;;;20.40;40.00;;;;;;5029151;28;20494;-60
2022/12/03 06:01:23;;;;;;;7.82;5.50;;;20.40;40.10;;;;;;5031432;28;20053;-61
2022/12/03 06:03:50;;;;;;;9.32;6.20;;;20.30;40.10;;;;;;5032632;28;20045;-61
2022/12/03 06:06:17;;;;;;;7.63;5.72;;;20.40;40.20;;;;;;5031968;28;20052;-61
2022/12/03 06:08:44;;;;;;;9.70;6.32;;;20.30;40.10;;;;;;5031996;28;20073;-61
2022/12/03 06:11:12;;;;;;;8.07;5.93;;;20.30;40.10;;;;;;5032300;28;20065;-61
2022/12/03 06:13:39;;;;;;;10.65;7.32;;;20.30;40.10;;;;;;5032377;28;20049;-61
2022/12/03 06:16:06;;;;;;;8.90;6.32;;;20.30;40.10;;;;;;5031913;28;20060;-61
2022/12/03 06:18:33;;;;;;;11.07;7.10;;;20.30;40.10;;;;;;5031904;28;20049;-61
2022/12/03 06:21:00;;;;;;;9.90;7.00;;;20.30;40.10;;;;;;5032132;28;20049;-61
2022/12/03 06:23:28;;;;;;;11.07;7.40;;;20.30;40.10;;;;;;5032324;28;20052;-61
2022/12/03 06:25:55;;;;;;;10.48;6.97;;;20.30;40.10;;;;;;5030543;28;20049;-61
2022/12/03 06:28:22;;;;;;;11.45;7.82;;;20.30;40.10;;;;;;5032232;28;20049;-61
2022/12/03 06:30:49;;;;;;;11.30;7.88;;;20.30;40.00;;;;;;5030362;28;20049;-61
2022/12/03 06:33:17;;;;;;;9.73;7.22;;;20.30;40.00;;;;;;5029426;28;20037;-61
2022/12/03 06:35:44;;;;;;;12.00;8.07;;;20.30;40.00;;;;;;5031635;28;20049;-61
2022/12/03 06:38:11;;;;;;;15.07;8.40;;;20.30;40.00;;;;;;5031648;28;20150;-60
2022/12/03 06:40:38;;;;;;;14.50;8.15;;;20.30;39.90;;;;;;5031872;28;20136;-61
2022/12/03 06:43:05;;;;;;;11.60;7.80;;;20.30;39.90;;;;;;5031392;28;20049;-61
2022/12/03 06:45:32;;;;;;;13.65;9.32;;;20.30;39.90;;;;;;5031470;28;20057;-61
2022/12/03 06:48:00;;;;;;;13.25;8.63;;;20.30;39.80;;;;;;5029885;28;20437;-61
2022/12/03 06:50:27;;;;;;;13.52;9.23;;;20.40;39.90;;;;;;5031197;28;20056;-61
2022/12/03 06:52:54;;;;;;;13.30;8.77;;;20.40;39.90;;;;;;5031525;28;20060;-61
2022/12/03 06:55:21;;;;;;;14.50;8.82;;;20.30;39.80;;;;;;5030798;28;20052;-61
2022/12/03 06:57:48;;;;;;;13.90;8.90;;;20.40;39.80;;;;;;5031462;28;20056;-61
2022/12/03 07:00:17;;;;;;;13.65;9.35;;;20.30;39.70;;;;;;5031144;28;20050;-61
2022/12/03 07:02:44;;;;;;;14.07;9.32;;;20.30;39.70;;;;;;5031463;28;20222;-61
2022/12/03 07:05:11;;;;;;;15.02;9.88;;;20.30;39.70;;;;;;5025179;28;20539;-61
2022/12/03 07:07:38;;;;;;;13.85;9.23;;;20.40;39.80;;;;;;5030025;28;20060;-61
2022/12/03 07:10:06;;;;;;;15.40;9.57;;;20.30;39.60;;;;;;5030272;28;20051;-61
2022/12/03 07:12:33;;;;;;;12.77;9.38;;;20.40;39.70;;;;;;5031254;28;20463;-61
2022/12/03 07:15:01;;;;;;;14.45;9.05;;;20.40;39.70;;;;;;5030793;28;20408;-61
2022/12/03 07:17:28;;;;;;;13.68;9.05;;;20.40;39.70;;;;;;5030981;28;20060;-61
2022/12/03 07:19:55;;;;;;;14.18;9.20;;;20.30;39.60;;;;;;5030770;28;20049;-61
2022/12/03 07:22:22;;;;;;;13.82;9.52;;;20.30;39.60;;;;;;5029856;28;20072;-61
2022/12/03 07:24:49;;;;;;;15.45;9.77;;;20.40;39.70;;;;;;5030719;28;20477;-61
2022/12/03 07:27:16;;;;;;;14.50;9.80;;;20.30;39.60;;;;;;5030165;28;20124;-60
2022/12/03 07:29:43;;;;;;;14.90;9.68;;;20.40;39.70;;;;;;5031158;28;20049;-61
2022/12/03 07:32:10;;;;;;;13.80;9.13;;;20.40;39.60;;;;;;5030645;28;20056;-61
2022/12/03 07:34:37;;;;;;;14.32;9.95;;;20.40;39.60;;;;;;5030970;28;20075;-61
2022/12/03 07:37:05;;;;;;;12.57;8.50;;;20.30;39.50;;;;;;5030004;28;20557;-61
2022/12/03 07:39:32;;;;;;;14.15;8.82;;;20.40;39.60;;;;;;5030576;28;20508;-61
2022/12/03 07:41:59;;;;;;;15.07;10.13;;;20.30;39.50;;;;;;5029246;28;20061;-61
2022/12/03 07:44:27;;;;;;;15.77;9.73;;;20.40;39.60;;;;;;5030510;28;20410;-61
2022/12/03 07:46:54;;;;;;;13.68;8.30;;;20.40;39.60;;;;;;5030038;28;20053;-61
2022/12/03 07:49:21;;;;;;;13.80;8.77;;;20.40;39.50;;;;;;5030432;28;20046;-61
2022/12/03 07:51:53;;;;;;;14.18;9.27;;;20.40;39.50;;;;;;5030066;28;20060;-61
2022/12/03 07:54:21;;;;;;;13.60;9.10;;;20.40;39.40;;;;;;5025845;28;20041;-61
2022/12/03 07:56:48;;;;;;;14.38;9.02;;;20.40;39.40;;;;;;5029405;28;20439;-61
2022/12/03 07:59:16;;;;;;;13.27;8.98;;;20.40;39.40;;;;;;5029553;28;20059;-61
2022/12/03 08:01:44;;;;;;;15.50;9.98;;;20.40;39.40;;;;;;5030062;28;20136;-61
2022/12/03 08:04:13;;;;;;;15.05;10.35;;;20.40;39.40;;;;;;5030309;28;20077;-61
2022/12/03 08:06:40;;;;;;;16.17;9.80;;;20.40;39.40;;;;;;5029779;28;20060;-61
2022/12/03 08:09:07;;;;;;;12.70;8.57;;;20.40;39.30;;;;;;5029746;28;20053;-61
2022/12/03 08:11:43;;;;;;;17.00;9.93;;;20.40;39.30;;;;;;5030219;28;20049;-61
2022/12/03 08:14:13;;;;;;;14.55;9.20;;;20.40;39.30;;;;;;5029930;28;20085;-61
2022/12/03 08:16:41;;;;;;;16.13;10.10;;;20.40;39.20;;;;;;5028174;28;20216;-61
2022/12/03 08:19:10;;;;;;;14.00;9.10;;;20.40;39.80;;;;;;5029675;28;20103;-61
2022/12/03 08:21:38;;;;;;;14.45;10.10;;;20.40;39.20;;;;;;5029402;28;20417;-61
2022/12/03 08:24:18;;;;;;;15.18;9.73;;;20.40;39.20;;;;;;5028583;28;20058;-61
2022/12/03 08:26:47;;;;;;;13.43;8.88;;;20.40;39.20;;;;;;5029363;28;20500;-61
2022/12/03 08:29:17;;;;;;;13.07;9.15;;;20.50;39.20;;;;;;5028521;28;20485;-61
2022/12/03 08:31:50;;;;;;;13.35;9.73;;;20.40;39.10;;;;;;5025222;28;20052;-61
2022/12/03 08:34:21;;;;;;;13.85;8.73;;;20.50;39.20;;;;;;5030139;28;20052;-61
2022/12/03 08:37:00;;;;;;;15.82;9.95;;;20.50;39.10;;;;;;5029359;28;20493;-61
2022/12/03 08:39:34;;;;;;;14.30;9.57;;;20.50;39.10;;;;;;5028842;28;20507;-61
2022/12/03 08:45:39;;;;;;;15.52;10.63;;;20.50;39.10;;;;;;5029611;28;20171;-61
2022/12/03 08:48:31;;;;;;;15.00;9.43;;;20.50;39.10;;;;;;5029547;28;20045;-61
2022/12/03 08:51:14;;;;;;;13.52;9.40;;;20.50;39.00;;;;;;5028858;28;20052;-61
2022/12/03 08:53:46;;;;;;;11.63;8.25;;;20.60;39.00;;;;;;5029749;28;20417;-64
2022/12/03 08:56:29;;;;;;;15.82;9.48;;;20.50;39.00;;;;;;5027902;28;20437;-61
2022/12/03 08:58:59;;;;;;;14.05;8.85;;;20.60;39.00;;;;;;5029083;28;20057;-61
2022/12/03 09:01:42;;;;;;;12.48;8.88;;;20.60;38.90;;;;;;5029213;28;20062;-61
2022/12/03 09:04:43;;;;;;;13.00;8.63;;;20.60;38.90;;;;;;5029543;28;20137;-61
2022/12/03 09:07:10;;;;;;;;;;;20.60;38.80;;;;;;5029232;28;20049;-61
2022/12/03 09:09:37;;;;;;;12.60;8.43;;;20.60;38.80;;;;;;5029636;28;19928;-61
2022/12/03 09:12:05;;;;;;;14.95;9.30;;;20.70;38.80;;;;;;5033463;28;20076;-61
2022/12/03 09:14:32;;;;;;;11.98;8.80;;;20.70;38.70;;;;;;5033081;28;20049;-61
2022/12/03 09:16:59;;;;;;;13.23;8.95;;;20.70;38.60;;;;;;5031728;28;20056;-61
2022/12/03 09:19:29;;;;;;;12.68;8.60;;;20.70;38.60;;;;;;5033154;28;20050;-61
2022/12/03 09:21:56;;;;;;;;;;;20.70;38.50;;;;;;5033402;28;20087;-61
2022/12/03 09:24:24;;;;;;;11.98;7.78;;;20.70;38.50;;;;;;5033067;28;19942;-61
2022/12/03 09:26:51;;;;;;;12.05;8.63;;;20.70;38.40;;;;;;5032345;28;20413;-61
2022/12/03 09:29:18;;;;;;;12.55;8.70;;;20.70;38.40;;;;;;5031929;28;20041;-61
2022/12/03 09:31:46;;;;;;;12.52;8.23;;;20.70;38.40;;;;;;5033167;28;20045;-61
2022/12/03 09:34:13;;;;;;;13.27;8.77;;;20.80;38.40;;;;;;5031256;28;20088;-61
2022/12/03 09:36:40;;;;;;;12.35;8.90;;;20.80;38.40;;;;;;5031049;28;20053;-61
2022/12/03 09:39:07;;;;;;;12.13;8.13;;;20.80;38.40;;;;;;5031347;28;20045;-61
2022/12/03 09:41:35;;;;;;;13.05;8.55;;;20.80;38.30;;;;;;5032851;28;20046;-61
2022/12/03 09:44:02;;;;;;;12.45;8.45;;;20.80;38.40;;;;;;5028355;28;20504;-61
2022/12/03 09:46:34;;;;;;;10.50;7.80;;;20.80;38.30;;;;;;5032423;28;20052;-61
2022/12/03 09:49:03;;;;;;;15.30;8.88;;;20.80;38.20;;;;;;5033140;28;20052;-61
2022/12/03 09:51:35;;;;;;;12.30;8.82;;;20.80;38.20;;;;;;5032451;28;20481;-61
2022/12/03 09:54:04;;;;;;;10.60;7.82;;;20.80;38.10;;;;;;5032817;28;20402;-61
2022/12/03 09:56:35;;;;;;;12.20;8.18;;;20.80;38.10;;;;;;5031984;28;20084;-61
2022/12/03 09:59:11;;;;;;;11.13;8.13;;;20.90;38.10;;;;;;5032555;28;20054;-61
2022/12/03 10:01:38;;;;;;;11.68;8.18;;;20.90;38.10;;;;;;5014949;28;20057;-61
2022/12/03 10:04:06;;;;;;;10.15;7.38;;;20.90;38.00;;;;;;5032255;28;20045;-61
2022/12/03 10:06:34;;;;;;;11.15;8.00;;;20.90;37.90;;;;;;5030578;28;20120;-61
2022/12/03 10:09:01;;;;;;;12.38;8.32;;;21.00;37.90;;;;;;5032503;28;20048;-61
2022/12/03 10:11:30;;;;;;;11.57;8.13;;;21.00;37.80;;;;;;5032085;28;20049;-61
2022/12/03 10:13:57;;;;;;;11.07;7.88;;;21.00;37.80;;;;;;5032097;28;20052;-61
2022/12/03 10:16:26;;;;;;;11.98;8.23;;;21.00;37.70;;;;;;5031821;28;20049;-61
2022/12/03 10:18:58;;;;;;;11.07;8.10;;;21.00;37.70;;;;;;5029491;28;20045;-61
2022/12/03 10:21:36;;;;;;;11.48;7.80;;;21.00;37.60;;;;;;5032190;28;20045;-61
2022/12/03 10:24:27;;;;;;;9.40;7.30;;;21.10;37.60;;;;;;5031678;28;20045;-61
2022/12/03 10:26:57;;;;;;;11.73;7.97;;;21.10;37.60;;;;;;5031654;28;20144;-61
2022/12/03 10:29:31;;;;;;;11.25;7.93;;;21.10;37.60;;;;;;5030814;28;20050;-61
2022/12/03 10:32:03;;;;;;;10.02;7.53;;;21.10;37.50;;;;;;5031844;28;20045;-61
2022/12/03 10:34:32;;;;;;;;;;;21.10;37.50;;;;;;5032145;28;20060;-61
2022/12/03 10:37:20;;;;;;;10.98;7.70;;;21.10;37.50;;;;;;5031300;28;20262;-62
2022/12/03 10:39:59;;;;;;;9.75;7.45;;;21.10;37.40;;;;;;5031899;28;20050;-61
2022/12/03 10:42:29;;;;;;;11.32;8.07;;;21.20;37.50;;;;;;5031313;28;20045;-61
2022/12/03 10:45:21;;;;;;;13.05;8.52;;;21.10;37.40;;;;;;5030581;28;20049;-61
2022/12/03 10:48:17;;;;;;;9.95;7.20;;;21.20;37.40;;;;;;5031728;28;20050;-61
2022/12/03 10:51:00;;;;;;;11.07;7.80;;;21.20;37.40;;;;;;5031464;28;20061;-61
2022/12/03 10:53:30;;;;;;;10.45;7.60;;;21.20;37.40;;;;;;5027334;28;20053;-61
2022/12/03 10:56:00;;;;;;;9.93;7.68;;;21.20;37.30;;;;;;5031024;28;20057;-61
2022/12/03 10:58:29;;;;;;;;;;;21.20;37.30;;;;;;5031848;28;20474;-61
2022/12/03 11:00:58;;;;;;;9.10;7.03;;;21.20;37.30;;;;;;5030828;28;19964;-61
2022/12/03 11:03:28;;;;;;;8.38;6.78;;;21.20;37.30;;;;;;5031782;28;20104;-61
2022/12/03 11:05:56;;;;;;;10.18;7.55;;;21.20;37.30;;;;;;5029172;28;20060;-61
2022/12/03 11:08:30;;;;;;;9.82;6.85;;;21.20;37.40;;;;;;5031309;28;20061;-61
2022/12/03 11:11:01;;;;;;;9.25;6.30;;;21.20;37.30;;;;;;5031349;28;20057;-61
2022/12/03 11:13:49;;;;;;;10.25;6.88;;;21.20;37.30;;;;;;5031430;28;20141;-61
2022/12/03 11:16:56;;;;;;;8.57;6.70;;;21.30;37.30;;;;;;5030828;28;20053;-61
2022/12/03 11:19:45;;;;;;;8.77;6.93;;;21.30;37.30;;;;;;5030566;28;20508;-61
2022/12/03 11:22:27;;;;;;;11.30;7.50;;;21.30;37.30;;;;;;5030806;28;20050;-61
2022/12/03 11:25:35;;;;;;;9.93;6.95;;;21.30;37.30;;;;;;5030759;28;20045;-60
2022/12/03 11:28:30;;;;;;;9.15;7.43;;;21.30;37.30;;;;;;5029001;28;20056;-61
2022/12/03 11:31:01;;;;;;;10.35;7.53;;;21.30;37.30;;;;;;5028337;28;20299;-61
2022/12/03 11:33:34;;;;;;;8.88;6.65;;;21.30;37.30;;;;;;5030180;28;20052;-61
2022/12/03 11:36:12;;;;;;;10.70;7.28;;;21.30;37.20;;;;;;5030374;28;20052;-61
2022/12/03 11:38:46;;;;;;;8.07;7.07;;;21.30;37.20;;;;;;5030686;28;20251;-61
2022/12/03 11:41:31;;;;;;;9.93;7.30;;;21.30;37.20;;;;;;5029263;28;20056;-61
2022/12/03 11:44:25;;;;;;;9.40;6.95;;;21.30;37.20;;;;;;5030828;28;20125;-61
2022/12/03 11:46:52;;;;;;;8.80;6.78;;;21.30;37.20;;;;;;5028477;28;20052;-61
2022/12/03 11:49:31;;;;;;;9.60;7.15;;;21.30;37.10;;;;;;5028969;28;20049;-61
2022/12/03 11:52:01;;;;;;;8.85;6.82;;;21.30;37.10;;;;;;5029042;28;20041;-61
2022/12/03 11:54:33;;;;;;;6.50;5.63;;;21.30;37.10;;;;;;5028764;28;20045;-61
2022/12/03 11:57:01;;;;;;;8.93;6.50;;;21.30;37.10;;;;;;5028324;28;20049;-61
2022/12/03 11:59:28;;;;;;;7.68;6.30;;;21.30;37.00;;;;;;5030554;28;20208;-61
2022/12/03 12:01:55;;;;;;;9.88;6.40;;;21.30;37.10;;;;;;5030338;28;20049;-61
2022/12/03 12:04:36;;;;;;;10.90;7.15;;;21.30;37.00;;;;;;5025811;28;20122;-61
2022/12/03 12:07:03;;;;;;;8.38;6.93;;;21.30;37.00;;;;;;5029738;28;20057;-61
2022/12/03 12:09:49;;;;;;;9.30;6.40;;;21.30;37.00;;;;;;5030431;28;20046;-61
2022/12/03 12:12:18;;;;;;;9.15;6.22;;;21.30;37.00;;;;;;5029918;28;20045;-61
2022/12/03 12:14:46;;;;;;;9.00;7.40;;;21.30;37.00;;;;;;5028423;28;20053;-61
2022/12/03 12:17:32;;;;;;;8.90;6.93;;;21.30;37.00;;;;;;5030097;28;20060;-63
2022/12/03 12:20:23;;;;;;;9.63;7.35;;;21.30;37.00;;;;;;5029971;28;20052;-61
2022/12/03 12:22:52;;;;;;;6.85;5.78;;;21.30;37.00;;;;;;5029811;28;20053;-61
2022/12/03 12:25:39;;;;;;;8.73;6.28;;;21.30;37.00;;;;;;5030100;28;20053;-61
2022/12/03 12:28:06;;;;;;;7.65;6.35;;;21.40;37.10;;;;;;5028577;28;20405;-61
2022/12/03 12:30:34;;;;;;;8.68;6.03;;;21.30;37.00;;;;;;5030127;28;20410;-61
2022/12/03 12:33:15;;;;;;;8.63;6.13;;;21.30;37.00;;;;;;5029253;28;20046;-61
2022/12/03 12:35:43;;;;;;;7.88;6.57;;;21.30;37.10;;;;;;5029718;28;20045;-61
2022/12/03 12:38:16;;;;;;;8.48;6.53;;;21.20;37.00;;;;;;5029299;28;20511;-61
2022/12/03 12:40:48;;;;;;;8.07;6.32;;;21.30;37.10;;;;;;5025394;28;20063;-61
2022/12/03 12:43:24;;;;;;;6.85;5.90;;;21.30;37.20;;;;;;5028832;28;20456;-61
2022/12/03 12:45:58;;;;;;;7.97;5.80;;;21.20;37.10;;;;;;5029329;28;20049;-61
2022/12/03 12:48:45;;;;;;;7.82;6.88;;;21.20;37.20;;;;;;5029540;28;20088;-61
2022/12/03 12:51:20;;;;;;;7.47;5.80;;;21.20;37.20;;;;;;5029306;28;20060;-61
2022/12/03 12:54:04;;;;;;;6.75;5.47;;;21.20;37.20;;;;;;4985609;28;20057;-61
2022/12/03 12:56:32;;;;;;;7.05;5.60;;;21.20;37.30;;;;;;5028902;28;20049;-61
2022/12/03 12:59:12;;;;;;;7.22;5.97;;;21.20;37.30;;;;;;5029688;28;20046;-61
2022/12/03 13:01:39;;;;;;;8.03;6.03;;;21.10;37.20;;;;;;5009363;28;20050;-61
2022/12/03 13:04:15;;;;;;;6.80;5.55;;;21.10;37.30;;;;;;5009144;28;20093;-61
2022/12/03 13:06:44;;;;;;;6.55;5.38;;;21.10;37.30;;;;;;5009097;28;20500;-61
2022/12/03 13:09:15;;;;;;;7.35;6.20;;;21.10;37.40;;;;;;5009470;28;20050;-61
2022/12/03 13:11:45;;;;;;;8.90;5.68;;;21.10;37.40;;;;;;5009436;28;20057;-61
2022/12/03 13:14:30;;;;;;;7.60;5.88;;;21.10;37.40;;;;;;5004772;28;20046;-61
2022/12/03 13:17:00;;;;;;;9.55;5.90;;;21.10;37.40;;;;;;5009293;28;20093;-61
2022/12/03 13:19:33;;;;;;;7.38;5.50;;;21.10;37.50;;;;;;5028585;28;20053;-61
2022/12/03 13:22:21;;;;;;;8.73;6.25;;;21.00;37.40;;;;;;5029296;28;20056;-60
2022/12/03 13:24:50;;;;;;;8.05;5.88;;;21.10;37.50;;;;;;5027663;28;20049;-61
2022/12/03 13:27:29;;;;;;;8.38;6.30;;;21.10;37.50;;;;;;5029124;28;20140;-61